^^
Meteo Knjazevac Station Historical Data
Daily Summary for January 1, 2022 Units:  Metric    English   Both
Daily Weekly Monthly Yearly Custom
  High: Low: Average:
Temperature: 29.6 °C 12 °C 21.2 °C
Dew Point: 17.1 °C 11.5 °C 14.3 °C
Humidity: 99% 37% 69%
Wind Speed: 16.1km/h 0km/h 5km/h
Wind Gust: 35.4km/h - -
Wind- - West
Pressure: 1016.8 hPa 1014.1 hPa -
Precipitation: 0 mm    
Historical Graphs
 
 
Tabular Data for January 1, 2022
Time Temperature Dew Point Pressure Wind Wind Speed Wind Gust Humidity Rainfall Rate (Hourly) solar Conditions
00:00 16.1 °C 14.4 °C 1016.8 hPa WNW 1.6 km/h 4.8 km/h 90% 0 mm 0 W/m2
00:10 15.9 °C 14.4 °C 1016.8 hPa Calm   3.2 km/h 91% 0 mm 0 W/m2
00:20 15.8 °C 14.3 °C 1016.8 hPa Calm   4.8 km/h 91% 0 mm 0 W/m2
00:30 15.6 °C 14.1 °C 1016.8 hPa Calm   1.6 km/h 91% 0 mm 0 W/m2
00:50 15.2 °C 14.1 °C 1016.5 hPa Calm   3.2 km/h 93% 0 mm 0 W/m2
01:00 15 °C 14.1 °C 1016.8 hPa North 1.6 km/h 3.2 km/h 94% 0 mm 0 W/m2
01:10 14.8 °C 13.8 °C 1016.5 hPa West 1.6 km/h 3.2 km/h 94% 0 mm 0 W/m2
01:20 14.6 °C 13.7 °C 1016.5 hPa West 1.6 km/h 3.2 km/h 94% 0 mm 0 W/m2
01:30 14.4 °C 13.4 °C 1016.5 hPa Calm   3.2 km/h 94% 0 mm 0 W/m2
01:40 14.3 °C 13.5 °C 1016.5 hPa Calm   1.6 km/h 95% 0 mm 0 W/m2
01:50 14.3 °C 13.3 °C 1016.5 hPa Calm   3.2 km/h 94% 0 mm 0 W/m2
02:00 14.2 °C 13.4 °C 1016.5 hPa Calm   3.2 km/h 95% 0 mm 0 W/m2
02:10 14.1 °C 13.3 °C 1016.5 hPa Calm   3.2 km/h 95% 0 mm 0 W/m2
02:20 13.9 °C 13.1 °C 1016.5 hPa NW 1.6 km/h 4.8 km/h 95% 0 mm 0 W/m2
02:30 13.8 °C 13 °C 1016.5 hPa WNW 1.6 km/h 4.8 km/h 95% 0 mm 0 W/m2
02:40 13.8 °C 13 °C 1016.5 hPa Calm   4.8 km/h 95% 0 mm 0 W/m2
03:10 13.5 °C 12.7 °C 1016.5 hPa Calm   3.2 km/h 95% 0 mm 0 W/m2
03:20 13.5 °C 12.9 °C 1016.5 hPa NE 3.2 km/h 4.8 km/h 96% 0 mm 0 W/m2
03:40 13.4 °C 12.8 °C 1016.5 hPa Calm   3.2 km/h 96% 0 mm 0 W/m2
03:50 13.4 °C 12.6 °C 1016.5 hPa NNW 1.6 km/h 4.8 km/h 95% 0 mm 0 W/m2
04:00 13.2 °C 12.4 °C 1016.5 hPa West 1.6 km/h 3.2 km/h 95% 0 mm 0 W/m2
04:10 12.9 °C 11.9 °C 1016.5 hPa WSW 1.6 km/h 4.8 km/h 94% 0 mm 0 W/m2
04:20 12.8 °C 12.2 °C 1016.5 hPa North 3.2 km/h 4.8 km/h 96% 0 mm 0 W/m2
04:40 12.6 °C 11.8 °C 1016.1 hPa WNW 1.6 km/h 4.8 km/h 95% 0 mm 0 W/m2
05:00 12.4 °C 11.8 °C 1016.5 hPa WNW 3.2 km/h 8 km/h 96% 0 mm 0 W/m2
05:10 12.5 °C 11.9 °C 1016.5 hPa WNW 1.6 km/h 4.8 km/h 96% 0 mm 0 W/m2
05:20 12.5 °C 11.9 °C 1016.5 hPa Calm   4.8 km/h 96% 0 mm 4 W/m2
05:30 12.3 °C 11.7 °C 1016.1 hPa West 1.6 km/h 3.2 km/h 96% 0 mm 9 W/m2
05:40 12.1 °C 11.5 °C 1016.5 hPa West 1.6 km/h 3.2 km/h 96% 0 mm 17 W/m2
05:50 12 °C 11.7 °C 1016.5 hPa WNW 3.2 km/h 4.8 km/h 98% 0 mm 25 W/m2
06:00 12.1 °C 11.8 °C 1016.5 hPa Calm   4.8 km/h 98% 0 mm 36 W/m2
06:20 12.2 °C 11.9 °C 1016.5 hPa Calm   3.2 km/h 98% 0 mm 83 W/m2
06:30 12.5 °C 12.3 °C 1016.5 hPa North 3.2 km/h 8 km/h 99% 0 mm 108 W/m2
06:40 12.8 °C 12.5 °C 1016.8 hPa WNW 1.6 km/h 4.8 km/h 98% 0 mm 147 W/m2
06:50 12.9 °C 12.6 °C 1016.5 hPa Calm   3.2 km/h 98% 0 mm 196 W/m2
07:00 13.3 °C 13.2 °C 1016.5 hPa Calm   3.2 km/h 99% 0 mm 223 W/m2
07:20 14.7 °C 13.7 °C 1016.5 hPa NW 1.6 km/h 4.8 km/h 94% 0 mm 290 W/m2
07:30 15.4 °C 14.3 °C 1016.5 hPa NNE 3.2 km/h 4.8 km/h 93% 0 mm 336 W/m2
07:40 16.2 °C 14.6 °C 1016.5 hPa Calm   8 km/h 90% 0 mm 367 W/m2
08:00 17.9 °C 15.2 °C 1016.5 hPa East 3.2 km/h 8 km/h 84% 0 mm 405 W/m2
08:10 18.7 °C 15.2 °C 1016.5 hPa East 4.8 km/h 12.9 km/h 80% 0 mm 440 W/m2
08:20 19.3 °C 15.4 °C 1016.5 hPa ESE 4.8 km/h 11.3 km/h 78% 0 mm 479 W/m2
08:30 20.1 °C 15.6 °C 1016.5 hPa SSE 3.2 km/h 8 km/h 75% 0 mm 510 W/m2
08:50 22.1 °C 16.2 °C 1016.1 hPa WSW 4.8 km/h 9.7 km/h 69% 0 mm 573 W/m2
09:00 22.6 °C 15.2 °C 1016.1 hPa NW 9.7 km/h 19.3 km/h 63% 0 mm 604 W/m2
09:20 23.4 °C 14.7 °C 1016.1 hPa WSW 11.3 km/h 20.9 km/h 58% 0 mm 659 W/m2
09:30 23.7 °C 14.1 °C 1016.1 hPa WSW 12.9 km/h 27.4 km/h 55% 0 mm 685 W/m2
09:40 23.9 °C 14 °C 1016.1 hPa WSW 12.9 km/h 25.7 km/h 54% 0 mm 573 W/m2
09:50 23.4 °C 13.8 °C 1016.1 hPa WSW 16.1 km/h 35.4 km/h 55% 0 mm 213 W/m2
10:00 20.7 °C 14.7 °C 1016.5 hPa SW 8 km/h 25.7 km/h 70% 0 mm 672 W/m2
10:10 23.8 °C 14.8 °C 1016.1 hPa WSW 11.3 km/h 24.1 km/h 57% 0 mm 777 W/m2
10:20 19.4 °C 15.4 °C 1016.5 hPa Calm   9.7 km/h 78% 0 mm 483 W/m2
10:40 23.1 °C 15.9 °C 1016.5 hPa WNW 8.9 km/h 32.2 km/h 64.5% 0 mm 545 W/m2
10:50 24.3 °C 15.2 °C 1016.1 hPa West 12.9 km/h 20.9 km/h 57% 0 mm 262 W/m2
11:00 25.1 °C 16 °C 1016.1 hPa West 9.7 km/h 24.1 km/h 57% 0 mm 865 W/m2
11:10 25.6 °C 15.6 °C 1016.1 hPa WSW 14.5 km/h 27.4 km/h 54% 0 mm 878 W/m2
11:20 25.9 °C 16.2 °C 1015.8 hPa West 11.3 km/h 27.4 km/h 55% 0 mm 434 W/m2
11:30 26.2 °C 16.2 °C 1015.5 hPa West 4.8 km/h 19.3 km/h 54% 0 mm 711 W/m2
11:40 26.1 °C 16.1 °C 1015.5 hPa WNW 8 km/h 17.7 km/h 54% 0 mm 911 W/m2
11:50 26.3 °C 16.3 °C 1015.5 hPa West 9.7 km/h 22.5 km/h 54% 0 mm 918 W/m2
12:00 26.2 °C 15.9 °C 1015.5 hPa West 11.3 km/h 20.9 km/h 53% 0 mm 924 W/m2
12:10 26.6 °C 15.9 °C 1015.5 hPa WSW 4.8 km/h 20.9 km/h 52% 0 mm 202 W/m2
12:30 27.4 °C 16.7 °C 1015.5 hPa NW 8 km/h 16.1 km/h 52% 0 mm 677 W/m2
12:40 27.4 °C 16.1 °C 1015.1 hPa NW 9.7 km/h 16.1 km/h 50% 0 mm 567 W/m2
12:50 27.8 °C 17.1 °C 1015.1 hPa West 4.8 km/h 19.3 km/h 52% 0 mm 932 W/m2
13:10 27.9 °C 16.2 °C 1015.1 hPa WNW 12.9 km/h 29 km/h 49% 0 mm 924 W/m2
13:20 28 °C 16.3 °C 1015.1 hPa WNW 12.9 km/h 25.7 km/h 49% 0 mm 769 W/m2
13:30 27.7 °C 16.3 °C 1014.8 hPa West 11.3 km/h 20.9 km/h 50% 0 mm 718 W/m2
14:00 21.5 °C 16.2 °C 1016.5 hPa West 4.8 km/h 14.5 km/h 72% 0 mm 878 W/m2
14:10 28.8 °C 15.7 °C 1014.8 hPa NW 9.7 km/h 22.5 km/h 45% 0 mm 865 W/m2
14:20 28.8 °C 15.3 °C 1014.4 hPa NW 11.3 km/h 22.5 km/h 44% 0 mm 850 W/m2
14:30 29.1 °C 15.6 °C 1014.4 hPa NNW 4.8 km/h 20.9 km/h 44% 0 mm 788 W/m2
14:40 29.1 °C 14.1 °C 1014.4 hPa NNW 9.7 km/h 20.9 km/h 40% 0 mm 797 W/m2
14:50 28.9 °C 13.9 °C 1014.4 hPa NNW 8 km/h 20.9 km/h 40% 0 mm 797 W/m2
15:00 29.2 °C 13.8 °C 1014.4 hPa NNW 11.3 km/h 24.1 km/h 39% 0 mm 776 W/m2
15:10 29.4 °C 13.2 °C 1014.4 hPa NNW 12.9 km/h 29 km/h 37% 0 mm 755 W/m2
15:20 29.3 °C 13.1 °C 1014.4 hPa NNW 14.5 km/h 25.7 km/h 37% 0 mm 732 W/m2
15:30 29.3 °C 13.5 °C 1014.4 hPa NNW 8 km/h 24.1 km/h 38% 0 mm 709 W/m2
15:40 29.5 °C 14.1 °C 1014.1 hPa NNW 3.2 km/h 19.3 km/h 39% 0 mm 684 W/m2
15:50 29.4 °C 13.6 °C 1014.1 hPa NNW 11.3 km/h 24.1 km/h 38% 0 mm 659 W/m2
16:00 29.6 °C 14.6 °C 1014.1 hPa NW 4.8 km/h 20.9 km/h 40% 0 mm 632 W/m2
16:10 29.6 °C 14.2 °C 1014.1 hPa WNW 11.3 km/h 20.9 km/h 39% 0 mm 605 W/m2
16:20 29.5 °C 15.2 °C 1014.1 hPa WNW 9.7 km/h 27.4 km/h 42% 0 mm 577 W/m2
16:30 29.5 °C 15.3 °C 1014.4 hPa WNW 8 km/h 20.9 km/h 42% 0 mm 548 W/m2
16:40 29.6 °C 14.6 °C 1014.1 hPa West 11.3 km/h 25.7 km/h 40% 0 mm 519 W/m2
17:00 29.4 °C 14.4 °C 1014.4 hPa NW 12.9 km/h 24.1 km/h 40% 0 mm 458 W/m2
17:10 29.4 °C 15.2 °C 1014.4 hPa WNW 12.9 km/h 22.5 km/h 42% 0 mm 428 W/m2
17:20 29.3 °C 14.7 °C 1014.4 hPa NW 14.5 km/h 22.5 km/h 41% 0 mm 397 W/m2
17:30 29.3 °C 15.1 °C 1014.4 hPa NW 9.7 km/h 20.9 km/h 42% 0 mm 366 W/m2
17:40 29.3 °C 15.4 °C 1014.4 hPa NNW 11.3 km/h 19.3 km/h 43% 0 mm 335 W/m2
17:50 29.3 °C 15.1 °C 1014.4 hPa WNW 8 km/h 22.5 km/h 42% 0 mm 304 W/m2
18:10 29 °C 15.2 °C 1014.4 hPa NW 9.7 km/h 16.1 km/h 43% 0 mm 244 W/m2
18:20 28.9 °C 15.4 °C 1014.4 hPa NW 1.6 km/h 19.3 km/h 44% 0 mm 214 W/m2
18:40 28.6 °C 15.2 °C 1014.4 hPa North 9.7 km/h 16.1 km/h 44% 0 mm 152 W/m2
19:00 27.7 °C 14.7 °C 1014.4 hPa North 4.8 km/h 16.1 km/h 45% 0 mm 82 W/m2
19:10 27.4 °C 14.8 °C 1014.8 hPa North 3.2 km/h 11.3 km/h 46% 0 mm 58 W/m2
19:20 26.9 °C 14.7 °C 1014.8 hPa North 3.2 km/h 11.3 km/h 47% 0 mm 42 W/m2
19:30 26.5 °C 14.3 °C 1014.8 hPa North 4.8 km/h 9.7 km/h 47% 0 mm 27 W/m2
19:40 26.1 °C 14.8 °C 1014.8 hPa NNW 3.2 km/h 8 km/h 50% 0 mm 15 W/m2
20:10 24.7 °C 14.4 °C 1015.1 hPa NW 3.2 km/h 6.4 km/h 53% 0 mm 0 W/m2
20:30 23.6 °C 14.8 °C 1015.1 hPa WSW 3.2 km/h 4.8 km/h 58% 0 mm 0 W/m2
20:50 22.1 °C 14.7 °C 1015.5 hPa SW 1.6 km/h 4.8 km/h 63% 0 mm 0 W/m2
21:00 21.8 °C 14.7 °C 1015.5 hPa West 3.2 km/h 6.4 km/h 64% 0 mm 0 W/m2
21:10 21.4 °C 14.8 °C 1015.8 hPa WSW 1.6 km/h 6.4 km/h 66% 0 mm 0 W/m2
21:20 20.9 °C 15 °C 1015.8 hPa SW 1.6 km/h 4.8 km/h 69% 0 mm 0 W/m2
21:30 20.4 °C 14.6 °C 1015.8 hPa West 3.2 km/h 6.4 km/h 69% 0 mm 0 W/m2
21:40 19.9 °C 14.7 °C 1016.1 hPa SW 1.6 km/h 4.8 km/h 72% 0 mm 0 W/m2
21:50 19.4 °C 14.3 °C 1016.1 hPa WSW 1.6 km/h 3.2 km/h 72% 0 mm 0 W/m2
22:10 18.9 °C 14.2 °C 1016.1 hPa Calm   3.2 km/h 74% 0 mm 0 W/m2
22:20 18.6 °C 14.4 °C 1016.1 hPa WSW 1.6 km/h 3.2 km/h 77% 0 mm 0 W/m2
22:30 18.1 °C 14.2 °C 1016.1 hPa Calm   4.8 km/h 78% 0 mm 0 W/m2
22:40 17.9 °C 14.3 °C 1016.1 hPa Calm   3.2 km/h 79% 0 mm 0 W/m2
22:50 17.7 °C 14 °C 1016.1 hPa West 1.6 km/h 3.2 km/h 79% 0 mm 0 W/m2
23:00 17.4 °C 13.9 °C 1016.1 hPa WSW 1.6 km/h 3.2 km/h 80% 0 mm 0 W/m2
23:10 17.2 °C 13.7 °C 1016.1 hPa Calm   6.4 km/h 80% 0 mm 0 W/m2
23:20 17.1 °C 13.6 °C 1016.1 hPa Calm   3.2 km/h 80% 0 mm 0 W/m2
23:30 16.9 °C 13.4 °C 1016.1 hPa Calm   3.2 km/h 80% 0 mm 0 W/m2
23:40 16.6 °C 13.3 °C 1016.1 hPa Calm   1.6 km/h 81% 0 mm 0 W/m2
Knjazevac, Serbia
Compliments of Weather Underground - 2 mb